Time,TemperatureF,DewpointF,PressureIn,WindDirection,WindDirectionDegrees,WindSpeedMPH,WindSpeedGustMPH,Humidity,HourlyPrecipIn,Conditions,Clouds,dailyrainin,SoftwareType,DateUTC
2013-04-07 00:00:00,53.6,48.6,30.20,SE,134,0.0,0.0,83,0.00,,,-99.99,Weather View 32 v60,2013-04-07 07:00:00,
2013-04-07 00:10:00,53.6,48.6,30.20,SE,137,0.0,0.0,83,0.00,,,-99.99,Weather View 32 v60,2013-04-07 07:10:00,
2013-04-07 00:20:00,53.4,48.7,30.20,ENE,72,0.0,0.0,84,0.00,,,-99.99,Weather View 32 v60,2013-04-07 07:20:00,
2013-04-07 00:30:00,53.1,48.3,30.20,ENE,71,0.0,0.0,84,0.00,,,-99.99,Weather View 32 v60,2013-04-07 07:30:00,
2013-04-07 00:40:00,52.5,47.8,30.17,ENE,71,0.0,0.0,84,0.00,,,-99.99,Weather View 32 v60,2013-04-07 07:40:00,
2013-04-07 00:47:00,52.5,47.8,30.17,ENE,71,0.0,0.0,84,0.00,,,-99.99,Weather View 32 v60,2013-04-07 07:47:00,
2013-04-07 01:00:00,51.6,47.2,30.20,West,280,0.0,0.0,85,0.00,,,-99.99,Weather View 32 v60,2013-04-07 08:00:00,
2013-04-07 01:10:00,51.4,47.1,30.20,SW,214,0.0,0.0,85,0.00,,,-99.99,Weather View 32 v60,2013-04-07 08:10:00,
2013-04-07 01:20:00,51.4,47.7,30.20,West,262,0.0,0.0,87,0.00,,,-99.99,Weather View 32 v60,2013-04-07 08:20:00,
2013-04-07 01:30:00,51.4,47.7,30.20,WSW,252,0.0,0.0,87,0.00,,,-99.99,Weather View 32 v60,2013-04-07 08:30:00,
2013-04-07 01:40:00,51.3,47.5,30.17,SW,217,0.0,0.0,87,0.00,,,-99.99,Weather View 32 v60,2013-04-07 08:40:00,
2013-04-07 01:47:00,51.3,47.5,30.17,SW,217,0.0,0.0,87,0.00,,,-99.99,Weather View 32 v60,2013-04-07 08:47:00,
2013-04-07 02:00:00,51.6,48.2,30.20,SE,138,0.0,0.0,88,0.00,,,-99.99,Weather View 32 v60,2013-04-07 09:00:00,
2013-04-07 02:10:00,52.0,48.8,30.20,SW,234,0.0,0.0,89,0.00,,,-99.99,Weather View 32 v60,2013-04-07 09:10:00,
2013-04-07 02:20:00,52.0,48.8,30.17,SW,234,0.0,0.0,89,0.00,,,-99.99,Weather View 32 v60,2013-04-07 09:20:00,
2013-04-07 02:30:00,52.0,48.5,30.17,SSW,213,0.0,0.0,88,0.00,,,-99.99,Weather View 32 v60,2013-04-07 09:30:00,
2013-04-07 02:40:00,52.2,48.7,30.17,SE,126,0.0,0.0,88,0.00,,,-99.99,Weather View 32 v60,2013-04-07 09:40:00,
2013-04-07 02:48:00,52.2,48.7,30.17,SE,126,0.0,0.0,88,0.00,,,-99.99,Weather View 32 v60,2013-04-07 09:48:00,
2013-04-07 03:00:00,52.3,48.9,30.17,South,179,0.0,0.0,88,0.00,,,-99.99,Weather View 32 v60,2013-04-07 10:00:00,
2013-04-07 03:10:00,52.5,49.1,30.17,SE,139,0.0,0.0,88,0.00,,,-99.99,Weather View 32 v60,2013-04-07 10:10:00,
2013-04-07 03:20:00,52.3,48.6,30.17,WSW,251,0.0,0.0,87,0.00,,,-99.99,Weather View 32 v60,2013-04-07 10:20:00,
2013-04-07 03:30:00,52.3,48.3,30.17,SSW,192,0.0,0.0,86,0.00,,,-99.99,Weather View 32 v60,2013-04-07 10:30:00,
2013-04-07 03:40:00,52.3,48.3,30.17,SE,136,0.0,0.0,86,0.00,,,-99.99,Weather View 32 v60,2013-04-07 10:40:00,
2013-04-07 03:50:00,52.3,48.3,30.14,SE,144,0.0,0.0,86,0.00,,,-99.99,Weather View 32 v60,2013-04-07 10:50:00,
2013-04-07 04:00:00,52.2,48.1,30.14,SSW,210,0.0,0.0,86,0.00,,,-99.99,Weather View 32 v60,2013-04-07 11:00:00,
2013-04-07 04:10:00,52.0,47.9,30.14,SSW,207,0.0,0.0,86,0.00,,,-99.99,Weather View 32 v60,2013-04-07 11:10:00,
2013-04-07 04:20:00,52.0,47.9,30.14,SSW,195,0.0,0.0,86,0.00,,,-99.99,Weather View 32 v60,2013-04-07 11:20:00,
2013-04-07 04:30:00,52.2,48.1,30.14,ESE,121,0.0,0.0,86,0.00,,,-99.99,Weather View 32 v60,2013-04-07 11:30:00,
2013-04-07 04:40:00,52.3,48.6,30.14,ESE,122,0.0,0.0,87,0.00,,,-99.99,Weather View 32 v60,2013-04-07 11:40:00,
2013-04-07 04:49:00,52.3,48.6,30.14,ESE,122,0.0,0.0,87,0.00,,,-99.99,Weather View 32 v60,2013-04-07 11:49:00,
2013-04-07 05:00:00,52.9,48.8,30.14,SE,128,0.0,0.0,86,0.00,,,-99.99,Weather View 32 v60,2013-04-07 12:00:00,
2013-04-07 05:10:00,52.9,48.8,30.14,SE,128,0.0,0.0,86,0.00,,,-99.99,Weather View 32 v60,2013-04-07 12:10:00,
2013-04-07 05:20:00,53.1,49.0,30.14,SE,130,0.0,0.0,86,0.00,,,-99.99,Weather View 32 v60,2013-04-07 12:20:00,
2013-04-07 05:30:00,53.1,48.7,30.14,WSW,240,0.0,0.0,85,0.00,,,-99.99,Weather View 32 v60,2013-04-07 12:30:00,
2013-04-07 05:40:00,53.2,48.8,30.14,SW,214,0.0,0.0,85,0.00,,,-99.99,Weather View 32 v60,2013-04-07 12:40:00,
2013-04-07 05:50:00,53.2,48.8,30.14,SSE,168,0.0,0.0,85,0.00,,,-99.99,Weather View 32 v60,2013-04-07 12:50:00,
2013-04-07 05:59:00,53.4,49.0,30.14,SSW,201,0.0,0.0,85,0.00,,,-99.99,Weather View 32 v60,2013-04-07 12:59:00,
2013-04-07 06:09:00,53.6,49.2,30.14,SSW,201,0.0,0.0,85,0.00,,,-99.99,Weather View 32 v60,2013-04-07 13:09:00,
2013-04-07 06:20:00,53.8,49.7,30.14,WNW,287,0.0,0.0,86,0.00,,,-99.99,Weather View 32 v60,2013-04-07 13:20:00,
2013-04-07 06:29:00,54.0,49.5,30.14,WSW,239,0.0,0.0,85,0.00,,,-99.99,Weather View 32 v60,2013-04-07 13:29:00,
2013-04-07 06:40:00,54.1,49.7,30.14,WSW,241,0.0,0.0,85,0.00,,,-99.99,Weather View 32 v60,2013-04-07 13:40:00,
2013-04-07 06:50:00,54.1,49.4,30.14,WSW,243,0.0,0.0,84,0.00,,,-99.99,Weather View 32 v60,2013-04-07 13:50:00,
2013-04-07 07:00:00,54.1,49.4,30.14,WSW,247,0.0,0.0,84,0.00,,,-99.99,Weather View 32 v60,2013-04-07 14:00:00,
2013-04-07 07:10:00,54.3,49.6,30.14,South,179,0.0,0.0,84,0.00,,,-99.99,Weather View 32 v60,2013-04-07 14:10:00,
2013-04-07 07:20:00,54.1,49.1,30.14,ESE,122,0.0,0.0,83,0.00,,,-99.99,Weather View 32 v60,2013-04-07 14:20:00,
2013-04-07 07:30:00,54.3,49.3,30.14,ESE,123,0.0,0.0,83,0.00,,,-99.99,Weather View 32 v60,2013-04-07 14:30:00,
2013-04-07 07:40:00,54.7,49.6,30.14,South,189,0.0,0.0,83,0.00,,,-99.99,Weather View 32 v60,2013-04-07 14:40:00,
2013-04-07 07:50:00,55.0,49.3,30.14,South,189,0.0,0.0,81,0.00,,,-99.99,Weather View 32 v60,2013-04-07 14:50:00,
2013-04-07 08:00:00,55.9,50.2,30.14,ESE,113,0.0,0.0,81,0.00,,,-99.99,Weather View 32 v60,2013-04-07 15:00:00,
2013-04-07 08:10:00,56.3,49.9,30.14,SSE,157,0.0,0.0,79,0.00,,,-99.99,Weather View 32 v60,2013-04-07 15:10:00,
2013-04-07 08:20:00,56.8,50.0,30.14,SSW,213,0.0,0.0,78,0.00,,,-99.99,Weather View 32 v60,2013-04-07 15:20:00,
2013-04-07 08:30:00,57.9,49.7,30.14,SSE,163,0.0,0.0,74,0.00,,,-99.99,Weather View 32 v60,2013-04-07 15:30:00,
2013-04-07 08:40:00,58.5,48.7,30.14,WSW,244,0.0,5.0,70,0.00,,,-99.99,Weather View 32 v60,2013-04-07 15:40:00,
2013-04-07 08:50:00,59.2,49.0,30.14,West,277,0.0,5.0,69,0.00,,,-99.99,Weather View 32 v60,2013-04-07 15:50:00,
2013-04-07 09:00:00,60.4,48.6,30.14,SW,219,0.0,5.0,65,0.00,,,-99.99,Weather View 32 v60,2013-04-07 16:00:00,
2013-04-07 09:10:00,60.4,48.2,30.14,WSW,252,0.0,5.0,64,0.00,,,-99.99,Weather View 32 v60,2013-04-07 16:10:00,
2013-04-07 09:20:00,60.3,47.6,30.14,WNW,288,0.0,5.0,63,0.00,,,-99.99,Weather View 32 v60,2013-04-07 16:20:00,
2013-04-07 09:40:00,61.7,48.9,30.11,ENE,67,0.0,0.0,63,0.00,,,-99.99,Weather View 32 v60,2013-04-07 16:40:00,
2013-04-07 09:49:00,64.4,48.3,30.11,South,178,0.0,0.0,56,0.00,,,-99.99,Weather View 32 v60,2013-04-07 16:49:00,
2013-04-07 10:10:00,65.1,47.0,30.11,NNW,328,0.0,0.0,52,0.00,,,-99.99,Weather View 32 v60,2013-04-07 17:10:00,
2013-04-07 10:19:00,65.3,46.7,30.14,NW,319,0.0,0.0,51,0.00,,,-99.99,Weather View 32 v60,2013-04-07 17:19:00,
2013-04-07 10:30:00,65.5,47.3,30.14,West,278,0.0,4.0,52,0.00,,,-99.99,Weather View 32 v60,2013-04-07 17:30:00,
2013-04-07 10:40:00,65.8,47.7,30.14,WSW,245,0.0,8.0,52,0.00,,,-99.99,Weather View 32 v60,2013-04-07 17:40:00,
2013-04-07 10:50:00,66.0,46.8,30.14,WSW,248,0.0,9.0,50,0.00,,,-99.99,Weather View 32 v60,2013-04-07 17:50:00,
2013-04-07 11:00:00,66.4,48.2,30.14,WSW,251,4.0,9.0,52,0.00,,,-99.99,Weather View 32 v60,2013-04-07 18:00:00,
2013-04-07 11:10:00,67.1,47.2,30.14,West,281,0.0,9.0,49,0.00,,,-99.99,Weather View 32 v60,2013-04-07 18:10:00,
2013-04-07 11:20:00,66.6,46.8,30.11,WSW,254,0.0,9.0,49,0.00,,,-99.99,Weather View 32 v60,2013-04-07 18:20:00,
2013-04-07 11:30:00,67.6,47.7,30.11,SW,222,5.0,9.0,49,0.00,,,-99.99,Weather View 32 v60,2013-04-07 18:30:00,
2013-04-07 11:40:00,68.5,47.5,30.11,West,260,9.0,9.0,47,0.00,,,-99.99,Weather View 32 v60,2013-04-07 18:40:00,
2013-04-07 11:50:00,68.9,47.2,30.11,SW,231,4.0,9.0,46,0.00,,,-99.99,Weather View 32 v60,2013-04-07 18:50:00,
2013-04-07 12:10:00,69.4,48.3,30.11,SW,217,4.0,9.0,47,0.00,,,-99.99,Weather View 32 v60,2013-04-07 19:10:00,
2013-04-07 12:20:00,69.3,47.0,30.11,South,187,0.0,9.0,45,0.00,,,-99.99,Weather View 32 v60,2013-04-07 19:20:00,
2013-04-07 12:30:00,69.1,47.4,30.11,SSW,208,0.0,9.0,46,0.00,,,-99.99,Weather View 32 v60,2013-04-07 19:30:00,
2013-04-07 12:40:00,68.9,47.2,30.11,WNW,299,3.0,9.0,46,0.00,,,-99.99,Weather View 32 v60,2013-04-07 19:40:00,
2013-04-07 12:50:00,67.3,48.5,30.11,SW,223,0.0,9.0,51,0.00,,,-99.99,Weather View 32 v60,2013-04-07 19:50:00,
2013-04-07 13:00:00,66.9,49.2,30.11,SW,225,0.0,10.0,53,0.00,,,-99.99,Weather View 32 v60,2013-04-07 20:00:00,
2013-04-07 13:10:00,67.3,49.0,30.11,WNW,283,0.0,10.0,52,0.00,,,-99.99,Weather View 32 v60,2013-04-07 20:10:00,
2013-04-07 13:20:00,67.8,47.9,30.08,SW,231,0.0,10.0,49,0.00,,,-99.99,Weather View 32 v60,2013-04-07 20:20:00,
2013-04-07 13:30:00,68.0,48.1,30.08,SW,220,0.0,10.0,49,0.00,,,-99.99,Weather View 32 v60,2013-04-07 20:30:00,
2013-04-07 13:40:00,67.3,48.5,30.08,West,271,0.0,10.0,51,0.00,,,-99.99,Weather View 32 v60,2013-04-07 20:40:00,
2013-04-07 13:50:00,67.5,48.7,30.08,WSW,245,5.0,10.0,51,0.00,,,-99.99,Weather View 32 v60,2013-04-07 20:50:00,
2013-04-07 14:00:00,67.5,47.6,30.08,WSW,240,0.0,11.0,49,0.00,,,-99.99,Weather View 32 v60,2013-04-07 21:00:00,
2013-04-07 14:10:00,67.1,47.8,30.08,West,261,0.0,11.0,50,0.00,,,-99.99,Weather View 32 v60,2013-04-07 21:10:00,
2013-04-07 14:20:00,66.7,48.0,30.05,SSW,210,0.0,12.0,51,0.00,,,-99.99,Weather View 32 v60,2013-04-07 21:20:00,
2013-04-07 14:30:00,67.3,48.0,30.05,West,262,0.0,12.0,50,0.00,,,-99.99,Weather View 32 v60,2013-04-07 21:30:00,
2013-04-07 14:40:00,67.5,46.5,30.05,WSW,252,0.0,12.0,47,0.00,,,-99.99,Weather View 32 v60,2013-04-07 21:40:00,
2013-04-07 14:50:00,67.5,45.9,30.05,NNW,330,0.0,12.0,46,0.00,,,-99.99,Weather View 32 v60,2013-04-07 21:50:00,
2013-04-07 15:00:00,67.5,45.3,30.05,WSW,238,0.0,12.0,45,0.00,,,-99.99,Weather View 32 v60,2013-04-07 22:00:00,
2013-04-07 15:10:00,67.1,44.4,30.05,West,259,3.0,12.0,44,0.00,,,-99.99,Weather View 32 v60,2013-04-07 22:10:00,
2013-04-07 15:20:00,66.9,44.8,30.05,SW,222,0.0,11.0,45,0.00,,,-99.99,Weather View 32 v60,2013-04-07 22:20:00,
2013-04-07 15:30:00,67.5,44.1,30.05,SSW,195,4.0,13.0,43,0.00,,,-99.99,Weather View 32 v60,2013-04-07 22:30:00,
2013-04-07 15:40:00,68.4,44.3,30.02,West,266,4.0,14.0,42,0.00,,,-99.99,Weather View 32 v60,2013-04-07 22:40:00,
2013-04-07 15:50:00,68.5,44.5,30.05,WNW,282,3.0,14.0,42,0.00,,,-99.99,Weather View 32 v60,2013-04-07 22:50:00,
2013-04-07 15:55:00,68.5,44.5,30.05,WNW,282,3.0,14.0,42,0.00,,,-99.99,Weather View 32 v60,2013-04-07 22:55:00,
2013-04-07 16:10:00,67.5,44.1,30.02,WSW,241,6.0,14.0,43,0.00,,,-99.99,Weather View 32 v60,2013-04-07 23:10:00,
2013-04-07 16:20:00,68.0,44.6,30.02,West,269,0.0,14.0,43,0.00,,,-99.99,Weather View 32 v60,2013-04-07 23:20:00,
2013-04-07 16:30:00,67.3,44.6,30.02,South,175,3.0,14.0,44,0.00,,,-99.99,Weather View 32 v60,2013-04-07 23:30:00,
2013-04-07 16:40:00,67.3,42.7,30.02,WSW,247,7.0,13.0,41,0.00,,,-99.99,Weather View 32 v60,2013-04-07 23:40:00,
2013-04-07 16:49:00,66.9,43.6,30.02,WSW,254,7.0,13.0,43,0.00,,,-99.99,Weather View 32 v60,2013-04-07 23:49:00,
2013-04-07 16:56:00,66.9,43.6,30.02,WSW,254,7.0,13.0,43,0.00,,,-99.99,Weather View 32 v60,2013-04-07 23:56:00,
2013-04-07 17:20:00,66.2,42.4,29.99,West,273,0.0,18.0,42,0.00,,,-99.99,Weather View 32 v60,2013-04-08 00:20:00,
2013-04-07 17:30:00,65.5,43.5,29.99,SW,232,0.0,18.0,45,0.00,,,-99.99,Weather View 32 v60,2013-04-08 00:30:00,
2013-04-07 17:40:00,64.2,43.5,30.02,WSW,240,3.0,18.0,47,0.00,,,-99.99,Weather View 32 v60,2013-04-08 00:40:00,
2013-04-07 17:50:00,63.0,42.9,30.02,SW,228,5.0,18.0,48,0.00,,,-99.99,Weather View 32 v60,2013-04-08 00:50:00,
2013-04-07 17:56:00,63.0,42.9,30.02,SW,228,5.0,18.0,48,0.00,,,-99.99,Weather View 32 v60,2013-04-08 00:56:00,
2013-04-07 18:20:00,61.3,43.5,29.99,SW,226,3.0,13.0,52,0.00,,,-99.99,Weather View 32 v60,2013-04-08 01:20:00,
2013-04-07 18:30:00,60.6,43.8,29.99,West,264,0.0,13.0,54,0.00,,,-99.99,Weather View 32 v60,2013-04-08 01:30:00,
2013-04-07 18:40:00,59.7,43.5,29.99,WSW,243,0.0,13.0,55,0.00,,,-99.99,Weather View 32 v60,2013-04-08 01:40:00,
2013-04-07 18:50:00,59.0,43.8,29.99,WNW,298,0.0,13.0,57,0.00,,,-99.99,Weather View 32 v60,2013-04-08 01:50:00,
2013-04-07 18:57:00,59.0,43.8,29.99,WNW,298,0.0,13.0,57,0.00,,,-99.99,Weather View 32 v60,2013-04-08 01:57:00,
2013-04-07 19:20:00,56.8,43.1,29.99,SSW,199,0.0,10.0,60,0.00,,,-99.99,Weather View 32 v60,2013-04-08 02:20:00,
2013-04-07 19:30:00,56.5,42.7,29.99,SW,232,0.0,10.0,60,0.00,,,-99.99,Weather View 32 v60,2013-04-08 02:30:00,
2013-04-07 19:50:00,56.3,43.4,29.99,WSW,249,4.0,10.0,62,0.00,,,-99.99,Weather View 32 v60,2013-04-08 02:50:00,
2013-04-07 19:57:00,56.3,43.4,29.99,WSW,249,4.0,10.0,62,0.00,,,-99.99,Weather View 32 v60,2013-04-08 02:57:00,
2013-04-07 20:10:00,55.4,43.8,29.96,WSW,239,0.0,11.0,65,0.00,,,-99.99,Weather View 32 v60,2013-04-08 03:10:00,
2013-04-07 20:30:00,55.2,44.4,29.96,WSW,238,0.0,11.0,67,0.00,,,-99.99,Weather View 32 v60,2013-04-08 03:30:00,
2013-04-07 20:40:00,55.0,44.6,29.96,SSW,196,4.0,11.0,68,0.00,,,-99.99,Weather View 32 v60,2013-04-08 03:40:00,
2013-04-07 20:50:00,55.0,45.0,29.96,WSW,243,0.0,11.0,69,0.00,,,-99.99,Weather View 32 v60,2013-04-08 03:50:00,
2013-04-07 20:58:00,55.0,45.0,29.96,WSW,243,0.0,11.0,69,0.00,,,-99.99,Weather View 32 v60,2013-04-08 03:58:00,
2013-04-07 21:00:00,54.9,44.9,29.96,WSW,249,0.0,7.0,69,0.00,,,-99.99,Weather View 32 v60,2013-04-08 04:00:00,
2013-04-07 21:10:00,54.7,45.4,29.96,WSW,238,0.0,7.0,71,0.00,,,-99.99,Weather View 32 v60,2013-04-08 04:10:00,
2013-04-07 21:20:00,54.3,47.2,29.96,WSW,247,0.0,7.0,77,0.00,,,-99.99,Weather View 32 v60,2013-04-08 04:20:00,
2013-04-07 21:40:00,53.2,48.8,29.93,SSW,192,0.0,7.0,85,0.00,,,-99.99,Weather View 32 v60,2013-04-08 04:40:00,
2013-04-07 21:50:00,53.1,48.7,29.93,WSW,252,0.0,7.0,85,0.00,,,-99.99,Weather View 32 v60,2013-04-08 04:50:00,
2013-04-07 22:00:00,53.1,48.7,29.93,South,181,0.0,7.0,85,0.00,,,-99.99,Weather View 32 v60,2013-04-08 05:00:00,
2013-04-07 22:10:00,53.1,48.7,29.93,SW,233,0.0,7.0,85,0.00,,,-99.99,Weather View 32 v60,2013-04-08 05:10:00,
2013-04-07 22:20:00,53.1,48.7,29.93,SSE,154,0.0,6.0,85,0.00,,,-99.99,Weather View 32 v60,2013-04-08 05:20:00,
2013-04-07 22:30:00,53.2,49.2,29.93,SSW,197,0.0,6.0,86,0.00,,,-99.99,Weather View 32 v60,2013-04-08 05:30:00,
2013-04-07 22:40:00,53.1,49.3,29.90,SSW,199,0.0,6.0,87,0.00,,,-99.99,Weather View 32 v60,2013-04-08 05:40:00,
2013-04-07 22:50:00,53.1,49.6,29.90,SW,216,0.0,6.0,88,0.00,,,-99.99,Weather View 32 v60,2013-04-08 05:50:00,
2013-04-07 22:59:00,53.1,49.6,29.90,SW,216,0.0,6.0,88,0.00,,,-99.99,Weather View 32 v60,2013-04-08 05:59:00,
2013-04-07 23:10:00,52.7,50.1,29.90,SE,130,0.0,6.0,91,0.04,,,-99.99,Weather View 32 v60,2013-04-08 06:10:00,
2013-04-07 23:20:00,52.7,50.4,29.87,SW,225,0.0,6.0,92,0.04,,,-99.99,Weather View 32 v60,2013-04-08 06:20:00,
2013-04-07 23:30:00,52.7,50.7,29.87,WNW,291,0.0,6.0,93,0.08,,,-99.99,Weather View 32 v60,2013-04-08 06:30:00,
2013-04-07 23:40:00,52.9,51.2,29.87,WSW,245,0.0,9.0,94,0.08,,,-99.99,Weather View 32 v60,2013-04-08 06:40:00,
2013-04-07 23:50:00,53.1,51.4,29.87,WSW,248,10.0,21.0,94,0.12,,,-99.99,Weather View 32 v60,2013-04-08 06:50:00,